createdAt,value
2023-01-29T00:01:58.210Z,98805.53
2023-01-29T00:04:25.318Z,98816.56
2023-01-29T00:06:52.101Z,98816.56
2023-01-29T00:09:19.260Z,98807.25
2023-01-29T00:11:46.056Z,98811.56
2023-01-29T00:14:13.307Z,98804.81
2023-01-29T00:16:40.091Z,98810.78
2023-01-29T00:19:07.361Z,98820.16
2023-01-29T00:21:34.583Z,98807.44
2023-01-29T00:24:01.398Z,98809.16
2023-01-29T00:26:28.718Z,98811.69
2023-01-29T00:29:01.902Z,98811.75
2023-01-29T00:31:29.301Z,98807.47
2023-01-29T00:33:58.962Z,98809.19
2023-01-29T00:36:26.822Z,98802.38
2023-01-29T00:38:59.252Z,98809.22
2023-01-29T00:41:51.025Z,98793.84
2023-01-29T00:44:37.091Z,98804.03
2023-01-29T00:47:05.114Z,98801.56
2023-01-29T00:49:31.851Z,98795.63
2023-01-29T00:52:17.502Z,98794.78
2023-01-29T00:54:44.205Z,98797.34
2023-01-29T00:57:10.965Z,98787.16
2023-01-29T00:59:38.008Z,98784.63
2023-01-29T01:02:23.082Z,98794.88
2023-01-29T01:04:50.145Z,98794.00
2023-01-29T01:07:16.870Z,98790.56
2023-01-29T01:10:01.954Z,98782.03
2023-01-29T01:12:29.015Z,98783.69
2023-01-29T01:14:55.758Z,98781.09
2023-01-29T01:17:22.855Z,98785.41
2023-01-29T01:19:49.950Z,98791.34
2023-01-29T01:22:16.780Z,98791.41
2023-01-29T01:24:43.464Z,98787.22
2023-01-29T01:27:10.274Z,98787.22
2023-01-29T01:29:36.975Z,98783.81
2023-01-29T01:32:03.939Z,98788.09
2023-01-29T01:34:30.785Z,98788.22
2023-01-29T01:36:57.563Z,98790.88
2023-01-29T01:39:25.447Z,98793.50
2023-01-29T01:41:55.805Z,98792.75
2023-01-29T01:44:58.808Z,98778.34
2023-01-29T01:47:41.597Z,98779.22
2023-01-29T01:50:37.125Z,98792.78
2023-01-29T01:53:09.479Z,98789.31
2023-01-29T01:55:44.753Z,98790.13
2023-01-29T01:58:21.477Z,98787.56
2023-01-29T02:00:48.726Z,98779.03
2023-01-29T02:03:36.037Z,98780.69
2023-01-29T02:06:21.374Z,98788.34
2023-01-29T02:09:19.322Z,98788.38
2023-01-29T02:11:46.180Z,98784.13
2023-01-29T02:14:12.912Z,98796.03
2023-01-29T02:16:39.927Z,98796.88
2023-01-29T02:19:21.643Z,98791.81
2023-01-29T02:22:17.775Z,98784.22
2023-01-29T02:25:09.737Z,98789.31
2023-01-29T02:27:48.416Z,98779.94
2023-01-29T02:30:45.721Z,98795.22
2023-01-29T02:33:41.580Z,98786.75
2023-01-29T02:36:20.057Z,98793.66
2023-01-29T02:39:13.049Z,98778.41
2023-01-29T02:41:50.644Z,98772.50
2023-01-29T02:44:41.700Z,98777.66
2023-01-29T02:47:26.080Z,98774.25
2023-01-29T02:50:48.532Z,98770.91
2023-01-29T02:53:38.024Z,98775.25
2023-01-29T02:56:18.542Z,98781.25
2023-01-29T02:58:57.260Z,98773.56
2023-01-29T03:01:51.659Z,98764.31
2023-01-29T03:04:29.116Z,98776.25
2023-01-29T03:07:05.609Z,98778.84
2023-01-29T03:09:44.489Z,98774.59
2023-01-29T03:12:33.927Z,98776.31
2023-01-29T03:15:25.019Z,98776.28
2023-01-29T03:17:59.753Z,98790.75
2023-01-29T03:20:35.309Z,98791.56
2023-01-29T03:23:13.671Z,98793.28
2023-01-29T03:26:01.966Z,98806.88
2023-01-29T03:28:48.963Z,98799.28
2023-01-29T03:31:37.470Z,98803.53
2023-01-29T03:34:18.119Z,98811.25
2023-01-29T03:36:55.986Z,98801.03
2023-01-29T03:39:28.337Z,98791.66
2023-01-29T03:42:23.590Z,98793.34
2023-01-29T03:45:12.251Z,98800.13
2023-01-29T03:48:10.442Z,98802.75
2023-01-29T03:51:15.511Z,98802.75
2023-01-29T03:54:01.367Z,98795.09
2023-01-29T03:56:44.410Z,98798.53
2023-01-29T03:59:45.175Z,98796.00
2023-01-29T04:02:29.975Z,98794.31
2023-01-29T04:05:05.227Z,98799.41
2023-01-29T04:07:34.693Z,98803.63
2023-01-29T04:10:09.695Z,98813.81
2023-01-29T04:12:50.033Z,98811.22
2023-01-29T04:15:20.318Z,98812.03
2023-01-29T04:17:52.620Z,98813.72
2023-01-29T04:20:21.126Z,98812.88
2023-01-29T04:22:52.845Z,98818.81
2023-01-29T04:25:46.257Z,98831.63
2023-01-29T04:28:25.745Z,98821.53
2023-01-29T04:31:10.845Z,98821.63
2023-01-29T04:34:05.609Z,98809.81
2023-01-29T04:36:47.293Z,98805.53
2023-01-29T04:39:22.817Z,98794.50
2023-01-29T04:42:19.359Z,98791.91
2023-01-29T04:45:19.701Z,98796.06
2023-01-29T04:48:07.555Z,98794.34
2023-01-29T04:50:47.174Z,98805.41
2023-01-29T04:53:43.773Z,98814.78
2023-01-29T04:56:45.751Z,98811.34
2023-01-29T04:59:21.578Z,98806.28
2023-01-29T05:01:49.492Z,98803.75
2023-01-29T05:04:21.242Z,98814.00
2023-01-29T05:06:49.080Z,98804.66
2023-01-29T05:09:17.815Z,98792.75
2023-01-29T05:11:47.100Z,98787.66
2023-01-29T05:14:19.621Z,98784.22
2023-01-29T05:16:53.607Z,98789.38
2023-01-29T05:19:20.316Z,98790.28
2023-01-29T05:21:49.632Z,98794.56
2023-01-29T05:24:23.669Z,98800.53
2023-01-29T05:27:12.348Z,98793.75
2023-01-29T05:29:47.023Z,98795.44
2023-01-29T05:32:15.495Z,98792.88
2023-01-29T05:34:42.431Z,98794.56
2023-01-29T05:37:10.276Z,98777.53
2023-01-29T05:39:36.979Z,98769.03
2023-01-29T05:42:03.998Z,98761.47
2023-01-29T05:44:30.713Z,98764.88
2023-01-29T05:46:57.480Z,98765.72
2023-01-29T05:49:24.401Z,98765.69
2023-01-29T05:51:51.140Z,98755.47
2023-01-29T05:54:17.842Z,98742.69
2023-01-29T05:56:44.592Z,98742.66
2023-01-29T05:59:11.314Z,98736.72
2023-01-29T06:01:38.159Z,98740.06
2023-01-29T06:04:05.041Z,98746.78
2023-01-29T06:06:31.816Z,98744.25
2023-01-29T06:08:58.601Z,98755.28
2023-01-29T06:11:25.780Z,98748.56
2023-01-29T06:13:55.328Z,98740.97
2023-01-29T06:16:22.237Z,98742.63
2023-01-29T06:18:48.979Z,98745.13
2023-01-29T06:21:16.245Z,98750.25
2023-01-29T06:23:46.399Z,98751.13
2023-01-29T06:26:15.540Z,98752.81
2023-01-29T06:28:42.563Z,98749.44
2023-01-29T06:31:37.744Z,98753.75
2023-01-29T06:33:57.198Z,98762.38
2023-01-29T06:36:24.235Z,98757.34
2023-01-29T06:38:50.961Z,98763.34
2023-01-29T06:41:22.602Z,98752.34
2023-01-29T06:43:49.438Z,98757.38
2023-01-29T06:46:16.190Z,98759.84
2023-01-29T06:48:43.281Z,98764.00
2023-01-29T06:51:11.311Z,98763.06
2023-01-29T06:53:39.609Z,98774.03
2023-01-29T06:56:07.388Z,98759.53
2023-01-29T06:58:37.103Z,98773.97
2023-01-29T07:01:10.149Z,98784.16
2023-01-29T07:03:37.479Z,98786.69
2023-01-29T07:06:05.241Z,98787.47
2023-01-29T07:08:31.994Z,98779.75
2023-01-29T07:11:00.661Z,98786.56
2023-01-29T07:13:27.825Z,98783.16
2023-01-29T07:15:54.615Z,98796.81
2023-01-29T07:18:21.414Z,98787.47
2023-01-29T07:20:48.168Z,98795.97
2023-01-29T07:23:15.642Z,98801.84
2023-01-29T07:25:42.383Z,98793.41
2023-01-29T07:28:09.201Z,98787.50
2023-01-29T07:30:36.472Z,98785.84
2023-01-29T07:33:07.508Z,98789.22
2023-01-29T07:35:43.344Z,98800.19
2023-01-29T07:38:11.332Z,98792.44
2023-01-29T07:40:38.209Z,98799.31
2023-01-29T07:43:07.530Z,98798.59
2023-01-29T07:45:37.298Z,98793.56
2023-01-29T07:48:05.763Z,98800.50
2023-01-29T07:50:34.878Z,98798.84
2023-01-29T07:53:02.870Z,98801.50
2023-01-29T07:55:30.688Z,98799.75
2023-01-29T07:58:03.058Z,98799.63
2023-01-29T08:00:31.350Z,98803.69
2023-01-29T08:03:12.585Z,98806.94
2023-01-29T08:05:39.321Z,98813.78
2023-01-29T08:08:07.682Z,98829.13
2023-01-29T08:10:39.718Z,98826.50
2023-01-29T08:13:07.738Z,98824.75
2023-01-29T08:15:37.083Z,98822.13
2023-01-29T08:18:04.959Z,98825.47
2023-01-29T08:20:31.746Z,98827.19
2023-01-29T08:23:04.416Z,98833.13
2023-01-29T08:25:31.766Z,98838.22
2023-01-29T08:28:00.129Z,98846.91
2023-01-29T08:30:30.631Z,98847.09
2023-01-29T08:32:57.696Z,98853.06
2023-01-29T08:35:25.083Z,98848.84
2023-01-29T08:37:56.695Z,98844.69
2023-01-29T08:40:23.488Z,98839.53
2023-01-29T08:42:50.292Z,98836.06
2023-01-29T08:45:17.847Z,98835.19
2023-01-29T08:47:49.791Z,98836.72
2023-01-29T08:50:17.940Z,98836.66
2023-01-29T08:52:45.441Z,98846.66
2023-01-29T08:55:13.153Z,98841.41
2023-01-29T08:57:40.168Z,98837.88
2023-01-29T09:00:10.288Z,98849.59
2023-01-29T09:02:37.864Z,98846.88
2023-01-29T09:05:05.419Z,98835.75
2023-01-29T09:07:32.298Z,98828.06
2023-01-29T09:09:59.014Z,98819.47
2023-01-29T09:12:25.780Z,98826.16
2023-01-29T09:14:52.556Z,98820.81
2023-01-29T09:17:19.478Z,98817.09
2023-01-29T09:19:46.215Z,98825.41
2023-01-29T09:22:12.968Z,98826.28
2023-01-29T09:24:39.869Z,98822.78
2023-01-29T09:27:06.623Z,98826.22
2023-01-29T09:29:35.757Z,98824.59
2023-01-29T09:32:04.546Z,98827.84
2023-01-29T09:34:31.337Z,98824.19
2023-01-29T09:36:58.333Z,98812.53
2023-01-29T09:39:25.155Z,98796.75
2023-01-29T09:42:15.279Z,98807.16
2023-01-29T09:45:09.377Z,98810.59
2023-01-29T09:47:37.574Z,98808.91
2023-01-29T09:50:20.448Z,98797.78
2023-01-29T09:53:00.871Z,98799.31
2023-01-29T09:55:39.213Z,98802.03
2023-01-29T09:58:30.121Z,98798.72
2023-01-29T10:01:15.767Z,98802.94
2023-01-29T10:04:34.634Z,98786.47
2023-01-29T10:07:26.080Z,98781.03
2023-01-29T10:10:43.890Z,98770.66
2023-01-29T10:13:38.655Z,98776.94
2023-01-29T10:16:21.277Z,98780.28
2023-01-29T10:19:40.076Z,98777.31
2023-01-29T10:22:38.695Z,98791.94
2023-01-29T10:25:11.466Z,98786.91
2023-01-29T10:27:45.225Z,98781.81
2023-01-29T10:30:41.222Z,98779.59
2023-01-29T10:33:18.333Z,98763.91
2023-01-29T10:35:54.699Z,98766.25
2023-01-29T10:38:35.087Z,98777.94
2023-01-29T10:41:10.566Z,98788.88
2023-01-29T10:43:58.029Z,98793.06
2023-01-29T10:46:44.977Z,98809.31
2023-01-29T10:49:49.039Z,98809.41
2023-01-29T10:52:39.137Z,98808.59
2023-01-29T10:56:21.938Z,98796.06
2023-01-29T10:58:55.674Z,98785.50
2023-01-29T11:01:23.547Z,98777.91
2023-01-29T11:04:16.940Z,98775.34
2023-01-29T11:06:44.460Z,98768.66
2023-01-29T11:09:42.967Z,98755.75
2023-01-29T11:12:17.514Z,98752.03
2023-01-29T11:14:59.138Z,98748.53
2023-01-29T11:17:26.836Z,98742.41
2023-01-29T11:19:58.006Z,98732.09
2023-01-29T11:22:28.924Z,98731.75
2023-01-29T11:25:19.117Z,98722.66
2023-01-29T11:28:01.699Z,98710.84
2023-01-29T11:30:41.082Z,98703.88
2023-01-29T11:33:23.697Z,98684.19
2023-01-29T11:35:52.476Z,98686.47
2023-01-29T11:38:28.881Z,98685.38
2023-01-29T11:41:14.339Z,98681.72
2023-01-29T11:43:41.049Z,98682.97
2023-01-29T11:46:15.258Z,98677.28
2023-01-29T11:48:58.986Z,98663.22
2023-01-29T11:51:33.707Z,98671.28
2023-01-29T11:54:04.156Z,98668.41
2023-01-29T11:56:46.165Z,98663.06
2023-01-29T11:59:37.835Z,98664.47
2023-01-29T12:02:19.640Z,98665.06
2023-01-29T12:04:47.848Z,98669.00
2023-01-29T12:07:18.531Z,98667.84
2023-01-29T12:09:59.958Z,98651.03
2023-01-29T12:12:39.871Z,98644.81
2023-01-29T12:15:21.672Z,98651.47
2023-01-29T12:18:03.075Z,98648.09
2023-01-29T12:21:11.975Z,98635.75
2023-01-29T12:24:00.449Z,98625.31
2023-01-29T12:26:57.966Z,98623.38
2023-01-29T12:29:52.447Z,98615.63
2023-01-29T12:32:49.676Z,98606.59
2023-01-29T12:35:32.925Z,98602.94
2023-01-29T12:38:17.650Z,98603.34
2023-01-29T12:41:12.898Z,98613.59
2023-01-29T12:43:46.827Z,98603.91
2023-01-29T12:46:42.033Z,98611.81
2023-01-29T12:49:27.902Z,98593.69
2023-01-29T12:52:07.665Z,98568.91
2023-01-29T12:54:58.087Z,98568.22
2023-01-29T12:57:44.555Z,98581.06
2023-01-29T13:00:22.445Z,98574.72
2023-01-29T13:03:29.493Z,98571.69
2023-01-29T13:06:20.939Z,98572.59
2023-01-29T13:08:55.422Z,98576.72
2023-01-29T13:11:40.500Z,98570.06
2023-01-29T13:14:31.564Z,98562.34
2023-01-29T13:17:30.068Z,98571.84
2023-01-29T13:20:10.353Z,98571.22
2023-01-29T13:22:40.621Z,98562.25
2023-01-29T13:25:16.593Z,98577.50
2023-01-29T13:27:47.540Z,98562.44
2023-01-29T13:30:25.011Z,98570.91
2023-01-29T13:32:54.372Z,98568.00
2023-01-29T13:35:23.627Z,98560.31
2023-01-29T13:37:54.192Z,98570.81
2023-01-29T13:40:30.068Z,98557.88
2023-01-29T13:43:00.193Z,98564.88
2023-01-29T13:45:45.191Z,98543.72
2023-01-29T13:48:29.194Z,98554.19
2023-01-29T13:51:00.454Z,98551.84
2023-01-29T13:53:33.422Z,98549.16
2023-01-29T13:56:44.671Z,98539.88
2023-01-29T13:59:49.761Z,98538.78
2023-01-29T14:02:26.231Z,98540.97
2023-01-29T14:05:31.006Z,98543.44
2023-01-29T14:08:03.314Z,98557.34
2023-01-29T14:10:32.984Z,98570.06
2023-01-29T14:13:26.963Z,98559.25
2023-01-29T14:15:59.480Z,98549.78
2023-01-29T14:18:32.272Z,98530.72
2023-01-29T14:21:32.258Z,98527.53
2023-01-29T14:24:18.924Z,98516.81
2023-01-29T14:26:52.772Z,98517.72
2023-01-29T14:29:34.215Z,98514.47
2023-01-29T14:32:25.991Z,98508.94
2023-01-29T14:35:18.290Z,98513.75
2023-01-29T14:37:50.764Z,98513.97
2023-01-29T14:40:20.609Z,98510.34
2023-01-29T14:43:06.505Z,98506.00
2023-01-29T14:45:44.508Z,98512.13
2023-01-29T14:48:11.196Z,98519.78
2023-01-29T14:50:45.583Z,98513.25
2023-01-29T14:53:27.480Z,98515.47
2023-01-29T14:56:10.358Z,98507.22
2023-01-29T14:58:49.027Z,98509.44
2023-01-29T15:01:36.882Z,98503.63
2023-01-29T15:04:22.315Z,98514.31
2023-01-29T15:07:09.239Z,98500.50
2023-01-29T15:10:23.667Z,98501.16
2023-01-29T15:13:07.643Z,98501.03
2023-01-29T15:15:55.965Z,98503.59
2023-01-29T15:18:41.971Z,98499.28
2023-01-29T15:21:14.911Z,98496.00
2023-01-29T15:23:43.248Z,98500.44
2023-01-29T15:26:18.021Z,98500.66
2023-01-29T15:29:02.179Z,98496.66
2023-01-29T15:31:31.180Z,98488.63
2023-01-29T15:34:02.960Z,98479.56
2023-01-29T15:36:32.180Z,98480.72
2023-01-29T15:39:18.811Z,98478.59
2023-01-29T15:41:46.297Z,98477.13
2023-01-29T15:44:20.923Z,98475.72
2023-01-29T15:46:59.762Z,98480.09
2023-01-29T15:49:39.493Z,98475.19
2023-01-29T15:52:19.031Z,98478.88
2023-01-29T15:54:46.962Z,98470.66
2023-01-29T15:57:23.795Z,98475.16
2023-01-29T15:59:54.264Z,98472.78
2023-01-29T16:02:39.332Z,98472.97
2023-01-29T16:05:18.285Z,98476.66
2023-01-29T16:07:46.625Z,98481.16
2023-01-29T16:10:26.199Z,98487.34
2023-01-29T16:12:53.828Z,98481.63
2023-01-29T16:15:40.062Z,98475.84
2023-01-29T16:18:28.542Z,98476.91
2023-01-29T16:20:58.777Z,98477.94
2023-01-29T16:23:31.188Z,98473.03
2023-01-29T16:26:06.865Z,98472.47
2023-01-29T16:28:40.705Z,98467.56
2023-01-29T16:31:07.840Z,98475.41
2023-01-29T16:33:38.941Z,98472.25
2023-01-29T16:36:18.572Z,98462.28
2023-01-29T16:38:54.135Z,98476.06
2023-01-29T16:41:23.862Z,98472.78
2023-01-29T16:44:01.660Z,98467.75
2023-01-29T16:46:45.698Z,98472.06
2023-01-29T16:49:30.881Z,98470.34
2023-01-29T16:52:18.428Z,98468.66
2023-01-29T16:54:45.244Z,98468.75
2023-01-29T16:57:22.689Z,98470.59
2023-01-29T16:59:55.377Z,98464.78
2023-01-29T17:02:33.227Z,98469.06
2023-01-29T17:05:10.086Z,98460.50
2023-01-29T17:07:37.808Z,98469.19
2023-01-29T17:10:06.849Z,98473.59
2023-01-29T17:12:34.215Z,98472.91
2023-01-29T17:15:43.464Z,98463.72
2023-01-29T17:18:19.578Z,98460.41
2023-01-29T17:20:47.637Z,98458.78
2023-01-29T17:23:14.582Z,98458.06
2023-01-29T17:25:42.124Z,98467.47
2023-01-29T17:28:14.314Z,98459.00
2023-01-29T17:30:41.237Z,98460.75
2023-01-29T17:33:23.296Z,98448.91
2023-01-29T17:35:50.599Z,98450.69
2023-01-29T17:38:25.846Z,98450.72
2023-01-29T17:41:07.003Z,98438.00
2023-01-29T17:43:34.797Z,98446.56
2023-01-29T17:46:01.716Z,98449.13
2023-01-29T17:48:30.554Z,98447.41
2023-01-29T17:51:02.460Z,98452.41
2023-01-29T17:53:44.333Z,98444.75
2023-01-29T17:56:29.401Z,98449.13
2023-01-29T17:58:56.465Z,98446.63
2023-01-29T18:01:23.230Z,98447.56
2023-01-29T18:03:52.074Z,98452.69
2023-01-29T18:06:29.785Z,98451.06
2023-01-29T18:08:56.630Z,98457.84
2023-01-29T18:11:23.858Z,98464.63
2023-01-29T18:13:50.986Z,98469.75
2023-01-29T18:16:18.413Z,98461.25
2023-01-29T18:18:45.277Z,98457.09
2023-01-29T18:21:11.995Z,98457.22
2023-01-29T18:23:38.865Z,98462.50
2023-01-29T18:26:07.395Z,98449.06
2023-01-29T18:28:34.191Z,98458.53
2023-01-29T18:31:06.533Z,98465.34
2023-01-29T18:33:34.200Z,98464.44
2023-01-29T18:36:00.960Z,98468.69
2023-01-29T18:38:27.738Z,98461.91
2023-01-29T18:41:02.746Z,98460.28
2023-01-29T18:43:29.581Z,98462.16
2023-01-29T18:45:59.828Z,98470.72
2023-01-29T18:48:26.568Z,98463.16
2023-01-29T18:50:53.417Z,98468.34
2023-01-29T18:53:20.422Z,98470.13
2023-01-29T18:56:05.122Z,98473.59
2023-01-29T18:58:36.982Z,98479.56
2023-01-29T19:01:11.508Z,98477.00
2023-01-29T19:03:40.516Z,98477.03
2023-01-29T19:06:10.686Z,98472.81
2023-01-29T19:08:38.202Z,98485.53
2023-01-29T19:11:07.981Z,98481.38
2023-01-29T19:13:38.659Z,98474.72
2023-01-29T19:16:10.278Z,98474.84
2023-01-29T19:18:37.187Z,98484.22
2023-01-29T19:21:10.664Z,98477.44
2023-01-29T19:23:38.177Z,98474.06
2023-01-29T19:26:06.201Z,98486.84
2023-01-29T19:28:33.155Z,98469.91
2023-01-29T19:31:00.824Z,98464.81
2023-01-29T19:33:28.508Z,98471.63
2023-01-29T19:35:59.841Z,98474.22
2023-01-29T19:38:27.529Z,98470.94
2023-01-29T19:40:55.221Z,98463.38
2023-01-29T19:43:22.066Z,98464.25
2023-01-29T19:45:50.792Z,98453.25
2023-01-29T19:48:21.442Z,98452.41
2023-01-29T19:51:00.723Z,98451.56
2023-01-29T19:53:29.301Z,98451.63
2023-01-29T19:56:05.884Z,98457.66
2023-01-29T19:58:33.736Z,98443.38
2023-01-29T20:01:07.357Z,98438.38
2023-01-29T20:03:34.378Z,98434.25
2023-01-29T20:06:06.525Z,98441.06
2023-01-29T20:08:34.845Z,98447.91
2023-01-29T20:11:02.525Z,98437.72
2023-01-29T20:13:29.740Z,98428.44
2023-01-29T20:15:56.757Z,98437.00
2023-01-29T20:18:23.953Z,98437.84
2023-01-29T20:20:52.939Z,98425.13
2023-01-29T20:23:36.528Z,98424.31
2023-01-29T20:26:05.724Z,98419.22
2023-01-29T20:28:32.680Z,98423.47
2023-01-29T20:30:59.493Z,98410.84
2023-01-29T20:33:27.413Z,98408.28
2023-01-29T20:35:57.423Z,98404.97
2023-01-29T20:38:30.015Z,98413.50
2023-01-29T20:41:08.350Z,98404.19
2023-01-29T20:43:35.282Z,98398.25
2023-01-29T20:46:02.577Z,98405.00
2023-01-29T20:48:30.801Z,98398.25
2023-01-29T20:51:09.649Z,98408.41
2023-01-29T20:53:37.075Z,98406.78
2023-01-29T20:56:04.915Z,98400.91
2023-01-29T20:58:32.050Z,98403.44
2023-01-29T21:00:59.122Z,98404.31
2023-01-29T21:03:26.031Z,98397.56
2023-01-29T21:05:54.171Z,98393.34
2023-01-29T21:08:20.928Z,98400.09
2023-01-29T21:10:51.586Z,98391.66
2023-01-29T21:13:18.310Z,98394.28
2023-01-29T21:15:45.152Z,98396.00
2023-01-29T21:18:11.879Z,98390.94
2023-01-29T21:20:38.684Z,98395.25
2023-01-29T21:23:07.151Z,98404.63
2023-01-29T21:25:34.256Z,98397.88
2023-01-29T21:28:02.734Z,98394.50
2023-01-29T21:30:29.719Z,98397.03
2023-01-29T21:32:56.466Z,98408.94
2023-01-29T21:35:23.267Z,98411.47
2023-01-29T21:37:49.978Z,98415.69
2023-01-29T21:40:17.444Z,98419.16
2023-01-29T21:43:03.369Z,98410.72
2023-01-29T21:45:30.076Z,98414.09
2023-01-29T21:47:56.933Z,98425.94
2023-01-29T21:50:23.740Z,98424.22
2023-01-29T21:52:50.484Z,98429.28
2023-01-29T21:55:17.210Z,98429.31
2023-01-29T21:57:44.411Z,98420.91
2023-01-29T22:00:12.409Z,98419.25
2023-01-29T22:02:39.664Z,98411.66
2023-01-29T22:05:18.916Z,98415.09
2023-01-29T22:07:50.161Z,98415.94
2023-01-29T22:10:19.256Z,98422.72
2023-01-29T22:12:47.232Z,98416.84
2023-01-29T22:15:15.740Z,98413.47
2023-01-29T22:17:43.652Z,98408.41
2023-01-29T22:20:13.197Z,98390.63
2023-01-29T22:22:40.313Z,98394.84
2023-01-29T22:25:07.947Z,98387.25
2023-01-29T22:27:34.954Z,98372.94
2023-01-29T22:30:02.200Z,98372.97
2023-01-29T22:32:29.088Z,98360.34
2023-01-29T22:34:55.845Z,98356.13
2023-01-29T22:37:22.554Z,98346.78
2023-01-29T22:39:49.274Z,98344.28
2023-01-29T22:42:19.102Z,98333.31
2023-01-29T22:44:45.847Z,98327.38
2023-01-29T22:47:12.579Z,98307.06
2023-01-29T22:49:39.305Z,98303.66
2023-01-29T22:52:11.936Z,98298.53
2023-01-29T22:54:41.981Z,98292.63
2023-01-29T22:57:12.599Z,98280.81
2023-01-29T22:59:39.916Z,98279.19
2023-01-29T23:02:08.084Z,98256.38
2023-01-29T23:04:34.864Z,98250.47
2023-01-29T23:07:01.634Z,98248.81
2023-01-29T23:09:28.415Z,98236.94
2023-01-29T23:11:55.194Z,98237.84
2023-01-29T23:14:21.993Z,98233.59
2023-01-29T23:16:48.761Z,98245.41
2023-01-29T23:19:15.458Z,98236.00
2023-01-29T23:21:42.188Z,98241.88
2023-01-29T23:24:09.825Z,98235.84
2023-01-29T23:26:55.256Z,98240.81
2023-01-29T23:29:22.042Z,98238.19
2023-01-29T23:31:48.769Z,98236.38
2023-01-29T23:34:15.606Z,98225.28
2023-01-29T23:36:42.498Z,98225.22
2023-01-29T23:39:09.726Z,98224.31
2023-01-29T23:41:36.514Z,98225.09
2023-01-29T23:44:03.975Z,98214.88
2023-01-29T23:46:31.683Z,98213.19
2023-01-29T23:48:58.641Z,98212.31
2023-01-29T23:51:25.530Z,98206.41
2023-01-29T23:53:52.315Z,98202.97
2023-01-29T23:56:19.086Z,98197.84
2023-01-29T23:58:46.243Z,98192.72
